Terminal Aerodrome Forecast
Issued by NWS

Home | Current Version | Previous Version | Text Only | Print | Product List | Glossary On
Versions: 1 2 3 4 5 6 7 8 9 10 11 12 13 14 15 16 17 18 19 20 21 22 23 24 25 26 27 28 29 30
000
FTAK31 PANC 312330
TAFACD
TAF
PACD 312330Z 0100/0124 36006KT P6SM FEW040 BKN090 OVC200
     FM010200 13009KT P6SM FEW040 BKN080 OVC200
     FM011300 13012KT P6SM VCSH BKN035 OVC080
     FM011600 13013G20KT P6SM -RA BKN020 OVC040
     FM012100 14018G28KT 3SM RA BR SCT006 OVC012=

USA.gov is the U.S. government's official web portal to all federal, state and local government web resources and services.